BRX1641 EKCH-EDDH
Flight info
| Callsign | BRX1641 |
|---|---|
| Flight time | 0h 48m |
| Altitude | 20000 |
| Route | KOPEX2C KOPEX DCT BAGOS N850 BOGMU BOGMU3P |
| Aircraft | AT76/M-SDFGIRY/S |
Departure
| Time | 2026-05-04 14:13 |
|---|---|
| Airport | Copenhagen Kastrup Airport (EKCH) |
Arrival
| Time | 2026-05-04 15:01 |
|---|---|
| Airport | Hamburg Helmut Schmidt Airport (EDDH) |
| Time | Latitude | Longitude | Altitude | Speed | Heading |
|---|---|---|---|---|---|
| 2026-05-04 13:42 | 55.62745 | 12.66155 | 22 ft | 0 kts | 311° |
| 2026-05-04 14:00 | 55.62733 | 12.66179 | 21 ft | 4 kts | 311° |
| 2026-05-04 14:01 | 55.62719 | 12.66207 | 23 ft | 4 kts | 309° |
| 2026-05-04 14:01 | 55.62708 | 12.66244 | 23 ft | 4 kts | 256° |
| 2026-05-04 14:01 | 55.62722 | 12.66277 | 24 ft | 0 kts | 221° |
| 2026-05-04 14:04 | 55.62717 | 12.66270 | 20 ft | 3 kts | 221° |
| 2026-05-04 14:05 | 55.62616 | 12.66135 | 20 ft | 12 kts | 188° |
| 2026-05-04 14:05 | 55.62528 | 12.66125 | 20 ft | 13 kts | 210° |
| 2026-05-04 14:05 | 55.62464 | 12.66033 | 20 ft | 11 kts | 226° |
| 2026-05-04 14:06 | 55.62448 | 12.65922 | 20 ft | 9 kts | 268° |
| 2026-05-04 14:06 | 55.62447 | 12.65792 | 20 ft | 13 kts | 269° |
| 2026-05-04 14:06 | 55.62444 | 12.65619 | 23 ft | 15 kts | 268° |
| 2026-05-04 14:06 | 55.62442 | 12.65414 | 20 ft | 18 kts | 270° |
| 2026-05-04 14:07 | 55.62436 | 12.65239 | 20 ft | 11 kts | 246° |
| 2026-05-04 14:07 | 55.62380 | 12.65202 | 22 ft | 10 kts | 178° |
| 2026-05-04 14:07 | 55.62291 | 12.65173 | 20 ft | 15 kts | 226° |
| 2026-05-04 14:07 | 55.62306 | 12.65000 | 20 ft | 16 kts | 302° |
| 2026-05-04 14:08 | 55.62355 | 12.64853 | 20 ft | 10 kts | 279° |
| 2026-05-04 14:08 | 55.62337 | 12.64747 | 22 ft | 11 kts | 245° |
| 2026-05-04 14:08 | 55.62306 | 12.64622 | 21 ft | 9 kts | 246° |
| 2026-05-04 14:08 | 55.62294 | 12.64572 | 21 ft | 0 kts | 246° |
| 2026-05-04 14:10 | 55.62286 | 12.64542 | 20 ft | 7 kts | 246° |
| 2026-05-04 14:10 | 55.62259 | 12.64426 | 19 ft | 13 kts | 246° |
| 2026-05-04 14:10 | 55.62168 | 12.64317 | 19 ft | 18 kts | 206° |
| 2026-05-04 14:10 | 55.62040 | 12.64209 | 20 ft | 22 kts | 205° |
| 2026-05-04 14:11 | 55.61901 | 12.64090 | 21 ft | 20 kts | 204° |
| 2026-05-04 14:11 | 55.61766 | 12.64080 | 21 ft | 8 kts | 176° |
| 2026-05-04 14:11 | 55.61745 | 12.64083 | 22 ft | 4 kts | 176° |
| 2026-05-04 14:12 | 55.61635 | 12.64078 | 24 ft | 19 kts | 199° |
| 2026-05-04 14:12 | 55.61549 | 12.63951 | 22 ft | 14 kts | 219° |
| 2026-05-04 14:12 | 55.60913 | 12.62956 | 29 ft | 117 kts | 229° |
| 2026-05-04 14:13 | 55.60226 | 12.61907 | 302 ft | 143 kts | 222° |
| 2026-05-04 14:13 | 55.59412 | 12.60752 | 747 ft | 156 kts | 225° |
| 2026-05-04 14:13 | 55.58567 | 12.59446 | 1282 ft | 163 kts | 225° |
| 2026-05-04 14:13 | 55.57716 | 12.58093 | 1861 ft | 165 kts | 225° |
| 2026-05-04 14:14 | 55.56858 | 12.56761 | 2307 ft | 163 kts | 225° |
| 2026-05-04 14:14 | 55.55246 | 12.53894 | 3257 ft | 166 kts | 232° |
| 2026-05-04 14:14 | 55.54467 | 12.52392 | 3725 ft | 166 kts | 232° |
| 2026-05-04 14:15 | 55.52913 | 12.49396 | 4695 ft | 165 kts | 232° |
| 2026-05-04 14:15 | 55.51381 | 12.46441 | 5634 ft | 164 kts | 232° |
| 2026-05-04 14:16 | 55.49815 | 12.43466 | 6537 ft | 165 kts | 231° |
| 2026-05-04 14:16 | 55.49042 | 12.42010 | 6951 ft | 165 kts | 231° |
| 2026-05-04 14:17 | 55.47463 | 12.39059 | 7790 ft | 166 kts | 231° |
| 2026-05-04 14:17 | 55.46668 | 12.37580 | 8221 ft | 166 kts | 231° |
| 2026-05-04 14:17 | 55.45070 | 12.34610 | 9062 ft | 167 kts | 231° |
| 2026-05-04 14:18 | 55.44267 | 12.33120 | 9482 ft | 168 kts | 231° |
| 2026-05-04 14:18 | 55.42655 | 12.30131 | 10273 ft | 169 kts | 231° |
| 2026-05-04 14:19 | 55.41017 | 12.27103 | 10928 ft | 175 kts | 231° |
| 2026-05-04 14:19 | 55.40176 | 12.25544 | 11318 ft | 175 kts | 231° |
| 2026-05-04 14:19 | 55.39333 | 12.23987 | 11679 ft | 176 kts | 231° |
| 2026-05-04 14:19 | 55.38488 | 12.22424 | 12056 ft | 176 kts | 231° |
| 2026-05-04 14:20 | 55.37652 | 12.20886 | 12434 ft | 176 kts | 231° |
| 2026-05-04 14:20 | 55.36803 | 12.19319 | 12803 ft | 177 kts | 232° |
| 2026-05-04 14:20 | 55.35951 | 12.17749 | 13180 ft | 178 kts | 232° |
| 2026-05-04 14:21 | 55.34235 | 12.14591 | 13898 ft | 179 kts | 232° |
| 2026-05-04 14:21 | 55.33371 | 12.13003 | 14207 ft | 180 kts | 232° |
| 2026-05-04 14:21 | 55.32505 | 12.11410 | 14530 ft | 180 kts | 232° |
| 2026-05-04 14:21 | 55.31636 | 12.09816 | 14846 ft | 181 kts | 232° |
| 2026-05-04 14:22 | 55.30763 | 12.08210 | 15159 ft | 182 kts | 232° |
| 2026-05-04 14:22 | 55.29888 | 12.06602 | 15468 ft | 182 kts | 232° |
| 2026-05-04 14:22 | 55.29008 | 12.04989 | 15773 ft | 183 kts | 232° |
| 2026-05-04 14:22 | 55.28125 | 12.03371 | 16074 ft | 184 kts | 232° |
| 2026-05-04 14:23 | 55.26349 | 12.00122 | 16679 ft | 185 kts | 232° |
| 2026-05-04 14:23 | 55.25457 | 11.98492 | 16979 ft | 186 kts | 232° |
| 2026-05-04 14:23 | 55.24560 | 11.96850 | 17277 ft | 186 kts | 232° |
| 2026-05-04 14:24 | 55.23673 | 11.95232 | 17570 ft | 187 kts | 232° |
| 2026-05-04 14:24 | 55.22771 | 11.93584 | 17863 ft | 188 kts | 232° |
| 2026-05-04 14:24 | 55.21867 | 11.91931 | 18151 ft | 188 kts | 232° |
| 2026-05-04 14:24 | 55.20962 | 11.90272 | 18407 ft | 189 kts | 232° |
| 2026-05-04 14:25 | 55.20048 | 11.88607 | 18600 ft | 191 kts | 232° |
| 2026-05-04 14:25 | 55.18205 | 11.85237 | 19079 ft | 192 kts | 232° |
| 2026-05-04 14:25 | 55.17281 | 11.83543 | 19314 ft | 193 kts | 232° |
| 2026-05-04 14:26 | 55.16354 | 11.81848 | 19541 ft | 193 kts | 231° |
| 2026-05-04 14:26 | 55.15424 | 11.80145 | 19765 ft | 194 kts | 232° |
| 2026-05-04 14:26 | 55.14482 | 11.78420 | 19901 ft | 199 kts | 232° |
| 2026-05-04 14:26 | 55.13507 | 11.76635 | 19944 ft | 207 kts | 231° |
| 2026-05-04 14:27 | 55.12486 | 11.74767 | 19945 ft | 216 kts | 231° |
| 2026-05-04 14:27 | 55.11426 | 11.72832 | 19953 ft | 224 kts | 231° |
| 2026-05-04 14:27 | 55.10336 | 11.70844 | 19951 ft | 230 kts | 231° |
| 2026-05-04 14:27 | 55.09217 | 11.68805 | 19951 ft | 235 kts | 231° |
| 2026-05-04 14:28 | 55.08074 | 11.66723 | 19954 ft | 239 kts | 231° |
| 2026-05-04 14:28 | 55.06917 | 11.64619 | 19955 ft | 242 kts | 231° |
| 2026-05-04 14:28 | 55.05745 | 11.62487 | 19954 ft | 244 kts | 231° |
| 2026-05-04 14:28 | 55.04560 | 11.60340 | 19954 ft | 246 kts | 231° |
| 2026-05-04 14:29 | 55.02169 | 11.56006 | 19954 ft | 249 kts | 230° |
| 2026-05-04 14:29 | 54.99774 | 11.51669 | 19960 ft | 251 kts | 231° |
| 2026-05-04 14:30 | 54.98558 | 11.49475 | 19957 ft | 252 kts | 230° |
| 2026-05-04 14:30 | 54.97336 | 11.47274 | 19940 ft | 252 kts | 229° |
| 2026-05-04 14:30 | 54.94008 | 11.44990 | 19952 ft | 265 kts | 199° |
| 2026-05-04 14:31 | 54.92205 | 11.44283 | 19956 ft | 266 kts | 200° |
| 2026-05-04 14:31 | 54.88629 | 11.42638 | 19957 ft | 266 kts | 203° |
| 2026-05-04 14:32 | 54.85063 | 11.40838 | 19958 ft | 267 kts | 202° |
| 2026-05-04 14:32 | 54.83273 | 11.39943 | 19960 ft | 268 kts | 202° |
| 2026-05-04 14:32 | 54.81479 | 11.39051 | 19960 ft | 268 kts | 202° |
| 2026-05-04 14:32 | 54.79684 | 11.38156 | 19959 ft | 268 kts | 202° |
| 2026-05-04 14:33 | 54.77891 | 11.37265 | 19959 ft | 268 kts | 202° |
| 2026-05-04 14:33 | 54.76117 | 11.36382 | 19962 ft | 269 kts | 202° |
| 2026-05-04 14:33 | 54.74317 | 11.35489 | 19961 ft | 269 kts | 202° |
| 2026-05-04 14:33 | 54.72512 | 11.34590 | 19952 ft | 269 kts | 202° |
| 2026-05-04 14:34 | 54.70714 | 11.33698 | 19956 ft | 269 kts | 202° |
| 2026-05-04 14:34 | 54.68914 | 11.32811 | 19959 ft | 268 kts | 202° |
| 2026-05-04 14:34 | 54.67119 | 11.31921 | 19963 ft | 269 kts | 202° |
| 2026-05-04 14:34 | 54.65319 | 11.31034 | 19962 ft | 268 kts | 202° |
| 2026-05-04 14:35 | 54.63523 | 11.30143 | 19963 ft | 268 kts | 202° |
| 2026-05-04 14:35 | 54.61726 | 11.29259 | 19965 ft | 268 kts | 202° |
| 2026-05-04 14:35 | 54.59927 | 11.28371 | 19965 ft | 268 kts | 202° |
| 2026-05-04 14:35 | 54.58129 | 11.27492 | 19966 ft | 268 kts | 202° |
| 2026-05-04 14:36 | 54.56423 | 11.26422 | 19967 ft | 261 kts | 213° |
| 2026-05-04 14:36 | 54.54861 | 11.24849 | 19966 ft | 260 kts | 217° |
| 2026-05-04 14:36 | 54.53328 | 11.23184 | 19968 ft | 260 kts | 218° |
| 2026-05-04 14:36 | 54.51789 | 11.21525 | 19968 ft | 261 kts | 217° |
| 2026-05-04 14:37 | 54.50229 | 11.19929 | 19973 ft | 261 kts | 216° |
| 2026-05-04 14:37 | 54.48649 | 11.18361 | 19946 ft | 261 kts | 216° |
| 2026-05-04 14:37 | 54.47073 | 11.16802 | 19960 ft | 260 kts | 216° |
| 2026-05-04 14:37 | 54.45502 | 11.15246 | 19964 ft | 260 kts | 216° |
| 2026-05-04 14:38 | 54.43962 | 11.13719 | 19968 ft | 259 kts | 216° |
| 2026-05-04 14:38 | 54.42396 | 11.12171 | 19972 ft | 259 kts | 216° |
| 2026-05-04 14:38 | 54.40831 | 11.10623 | 19968 ft | 259 kts | 216° |
| 2026-05-04 14:38 | 54.39268 | 11.09078 | 19973 ft | 259 kts | 216° |
| 2026-05-04 14:39 | 54.37701 | 11.07532 | 19971 ft | 259 kts | 216° |
| 2026-05-04 14:39 | 54.36139 | 11.05991 | 19973 ft | 259 kts | 216° |
| 2026-05-04 14:39 | 54.34574 | 11.04448 | 19968 ft | 259 kts | 216° |
| 2026-05-04 14:40 | 54.31447 | 11.01373 | 19971 ft | 259 kts | 216° |
| 2026-05-04 14:40 | 54.30024 | 10.99604 | 19972 ft | 250 kts | 230° |
| 2026-05-04 14:40 | 54.28932 | 10.97301 | 19969 ft | 250 kts | 237° |
| 2026-05-04 14:40 | 54.27938 | 10.94906 | 19972 ft | 250 kts | 238° |
| 2026-05-04 14:41 | 54.26931 | 10.92479 | 19973 ft | 251 kts | 237° |
| 2026-05-04 14:41 | 54.25879 | 10.90062 | 19772 ft | 256 kts | 236° |
| 2026-05-04 14:41 | 54.23715 | 10.85281 | 19231 ft | 253 kts | 236° |
| 2026-05-04 14:42 | 54.21563 | 10.80533 | 18716 ft | 252 kts | 236° |
| 2026-05-04 14:42 | 54.20492 | 10.78166 | 18448 ft | 252 kts | 236° |
| 2026-05-04 14:42 | 54.19418 | 10.75794 | 18183 ft | 253 kts | 236° |
| 2026-05-04 14:43 | 54.18338 | 10.73403 | 17879 ft | 255 kts | 236° |
| 2026-05-04 14:43 | 54.17247 | 10.71010 | 17581 ft | 256 kts | 235° |
| 2026-05-04 14:43 | 54.16149 | 10.68596 | 17278 ft | 257 kts | 235° |
| 2026-05-04 14:43 | 54.15050 | 10.66182 | 16983 ft | 258 kts | 235° |
| 2026-05-04 14:44 | 54.13958 | 10.63781 | 16690 ft | 259 kts | 235° |
| 2026-05-04 14:44 | 54.12853 | 10.61356 | 16415 ft | 260 kts | 235° |
| 2026-05-04 14:44 | 54.11741 | 10.58914 | 16128 ft | 261 kts | 235° |
| 2026-05-04 14:44 | 54.10619 | 10.56464 | 15838 ft | 263 kts | 235° |
| 2026-05-04 14:45 | 54.09494 | 10.53998 | 15547 ft | 263 kts | 235° |
| 2026-05-04 14:45 | 54.08367 | 10.51530 | 15263 ft | 264 kts | 235° |
| 2026-05-04 14:45 | 54.07239 | 10.49051 | 14984 ft | 265 kts | 235° |
| 2026-05-04 14:45 | 54.06097 | 10.46580 | 14700 ft | 266 kts | 234° |
| 2026-05-04 14:46 | 54.04960 | 10.44108 | 14419 ft | 266 kts | 235° |
| 2026-05-04 14:46 | 54.03818 | 10.41620 | 14130 ft | 267 kts | 234° |
| 2026-05-04 14:46 | 54.03058 | 10.39967 | 13944 ft | 267 kts | 234° |
| 2026-05-04 14:46 | 54.01913 | 10.37479 | 13658 ft | 268 kts | 234° |
| 2026-05-04 14:47 | 54.00762 | 10.34982 | 13348 ft | 266 kts | 234° |
| 2026-05-04 14:47 | 53.99627 | 10.32522 | 13045 ft | 262 kts | 234° |
| 2026-05-04 14:47 | 53.98510 | 10.30099 | 12741 ft | 259 kts | 234° |
| 2026-05-04 14:47 | 53.97394 | 10.27743 | 12447 ft | 244 kts | 233° |
| 2026-05-04 14:48 | 53.96350 | 10.25627 | 12184 ft | 229 kts | 232° |
| 2026-05-04 14:48 | 53.95322 | 10.23574 | 11934 ft | 231 kts | 230° |
| 2026-05-04 14:48 | 53.93942 | 10.22174 | 11669 ft | 241 kts | 197° |
| 2026-05-04 14:48 | 53.92236 | 10.22419 | 11387 ft | 258 kts | 163° |
| 2026-05-04 14:49 | 53.90681 | 10.24035 | 11104 ft | 266 kts | 146° |
| 2026-05-04 14:49 | 53.89369 | 10.26269 | 10802 ft | 275 kts | 125° |
| 2026-05-04 14:49 | 53.88799 | 10.29373 | 10500 ft | 282 kts | 94° |
| 2026-05-04 14:49 | 53.89185 | 10.32571 | 10204 ft | 275 kts | 63° |
| 2026-05-04 14:50 | 53.90371 | 10.34990 | 9928 ft | 262 kts | 38° |
| 2026-05-04 14:50 | 53.91722 | 10.37028 | 9630 ft | 258 kts | 39° |
| 2026-05-04 14:50 | 53.93040 | 10.39052 | 9332 ft | 253 kts | 38° |
| 2026-05-04 14:50 | 53.94369 | 10.40972 | 9036 ft | 249 kts | 38° |
| 2026-05-04 14:51 | 53.95541 | 10.43097 | 8742 ft | 247 kts | 59° |
| 2026-05-04 14:51 | 53.95932 | 10.45894 | 8451 ft | 246 kts | 95° |
| 2026-05-04 14:51 | 53.95368 | 10.48550 | 8188 ft | 237 kts | 131° |
| 2026-05-04 14:51 | 53.94123 | 10.50245 | 7926 ft | 226 kts | 154° |
| 2026-05-04 14:52 | 53.92766 | 10.51592 | 7678 ft | 225 kts | 154° |
| 2026-05-04 14:52 | 53.91336 | 10.52363 | 7424 ft | 212 kts | 187° |
| 2026-05-04 14:52 | 53.89974 | 10.51667 | 7182 ft | 203 kts | 211° |
| 2026-05-04 14:52 | 53.88751 | 10.50381 | 6949 ft | 211 kts | 219° |
| 2026-05-04 14:53 | 53.87616 | 10.48738 | 6708 ft | 218 kts | 227° |
| 2026-05-04 14:53 | 53.86569 | 10.46824 | 6465 ft | 224 kts | 232° |
| 2026-05-04 14:53 | 53.85583 | 10.44816 | 6194 ft | 223 kts | 233° |
| 2026-05-04 14:53 | 53.84617 | 10.42761 | 5916 ft | 223 kts | 234° |
| 2026-05-04 14:54 | 53.83658 | 10.40710 | 5660 ft | 222 kts | 234° |
| 2026-05-04 14:54 | 53.82696 | 10.38677 | 5407 ft | 220 kts | 233° |
| 2026-05-04 14:54 | 53.81725 | 10.36687 | 5145 ft | 218 kts | 233° |
| 2026-05-04 14:54 | 53.80754 | 10.34735 | 4887 ft | 216 kts | 232° |
| 2026-05-04 14:55 | 53.79790 | 10.32803 | 4630 ft | 214 kts | 232° |
| 2026-05-04 14:55 | 53.78835 | 10.30884 | 4367 ft | 213 kts | 232° |
| 2026-05-04 14:55 | 53.77880 | 10.28978 | 4122 ft | 211 kts | 232° |
| 2026-05-04 14:55 | 53.76939 | 10.27091 | 3930 ft | 209 kts | 232° |
| 2026-05-04 14:56 | 53.76046 | 10.25193 | 3783 ft | 205 kts | 234° |
| 2026-05-04 14:56 | 53.75214 | 10.23384 | 3552 ft | 185 kts | 234° |
| 2026-05-04 14:56 | 53.74424 | 10.21772 | 3275 ft | 170 kts | 232° |
| 2026-05-04 14:56 | 53.73677 | 10.20371 | 3170 ft | 154 kts | 230° |
| 2026-05-04 14:57 | 53.72960 | 10.19102 | 3138 ft | 144 kts | 229° |
| 2026-05-04 14:57 | 53.72296 | 10.17778 | 2787 ft | 151 kts | 236° |
| 2026-05-04 14:57 | 53.71703 | 10.16336 | 2563 ft | 147 kts | 237° |
| 2026-05-04 14:57 | 53.71087 | 10.15013 | 2358 ft | 139 kts | 233° |
| 2026-05-04 14:58 | 53.70461 | 10.13853 | 2174 ft | 128 kts | 233° |
| 2026-05-04 14:58 | 53.69911 | 10.12722 | 2004 ft | 130 kts | 236° |
| 2026-05-04 14:58 | 53.69311 | 10.11495 | 1829 ft | 140 kts | 233° |
| 2026-05-04 14:58 | 53.68668 | 10.10232 | 1656 ft | 138 kts | 234° |
| 2026-05-04 14:59 | 53.68077 | 10.09056 | 1469 ft | 128 kts | 237° |
| 2026-05-04 14:59 | 53.67505 | 10.07875 | 1285 ft | 130 kts | 237° |
| 2026-05-04 14:59 | 53.66376 | 10.05551 | 944 ft | 123 kts | 233° |
| 2026-05-04 15:00 | 53.65809 | 10.04474 | 804 ft | 124 kts | 230° |
| 2026-05-04 15:00 | 53.65262 | 10.03361 | 635 ft | 122 kts | 239° |
| 2026-05-04 15:00 | 53.64738 | 10.02258 | 434 ft | 120 kts | 235° |
| 2026-05-04 15:01 | 53.63668 | 10.00099 | 120 ft | 122 kts | 233° |
| 2026-05-04 15:01 | 53.63143 | 9.99033 | 51 ft | 108 kts | 237° |
| 2026-05-04 15:01 | 53.62865 | 9.98428 | 49 ft | 31 kts | 224° |
| 2026-05-04 15:01 | 53.62722 | 9.98383 | 49 ft | 18 kts | 148° |
| 2026-05-04 15:02 | 53.62679 | 9.98531 | 48 ft | 15 kts | 61° |
| 2026-05-04 15:02 | 53.62737 | 9.98650 | 48 ft | 12 kts | 50° |
| 2026-05-04 15:02 | 53.62792 | 9.98762 | 47 ft | 13 kts | 50° |
| 2026-05-04 15:02 | 53.62849 | 9.98876 | 47 ft | 13 kts | 50° |
| 2026-05-04 15:03 | 53.62909 | 9.98997 | 47 ft | 15 kts | 49° |
| 2026-05-04 15:03 | 53.62982 | 9.99145 | 47 ft | 18 kts | 51° |
| 2026-05-04 15:03 | 53.63059 | 9.99308 | 47 ft | 13 kts | 54° |
| 2026-05-04 15:03 | 53.63084 | 9.99371 | 48 ft | 0 kts | 56° |
| 2026-05-04 15:04 | 53.63089 | 9.99382 | 48 ft | 4 kts | 56° |
| 2026-05-04 15:05 | 53.63115 | 9.99448 | 48 ft | 9 kts | 56° |
| 2026-05-04 15:05 | 53.63157 | 9.99543 | 48 ft | 11 kts | 52° |
| 2026-05-04 15:05 | 53.63207 | 9.99642 | 47 ft | 11 kts | 49° |
| 2026-05-04 15:05 | 53.63223 | 9.99753 | 47 ft | 12 kts | 120° |
| 2026-05-04 15:06 | 53.63142 | 9.99831 | 47 ft | 15 kts | 155° |
| 2026-05-04 15:06 | 53.63036 | 9.99922 | 48 ft | 19 kts | 152° |
| 2026-05-04 15:06 | 53.62914 | 10.00034 | 48 ft | 21 kts | 151° |
| 2026-05-04 15:07 | 53.62649 | 10.00254 | 48 ft | 19 kts | 153° |
| 2026-05-04 15:07 | 53.62624 | 10.00281 | 48 ft | 1 kts | 120° |
| 2026-05-04 15:07 | 53.62634 | 10.00324 | 48 ft | 6 kts | 62° |
| 2026-05-04 15:07 | 53.62647 | 10.00365 | 46 ft | 0 kts | 60° |
| 2026-05-04 15:08 | 53.62648 | 10.00369 | 47 ft | 1 kts | 61° |
| 2026-05-04 15:08 | 53.62649 | 10.00372 | 47 ft | 0 kts | 61° |